createdAt,value
2019-03-23T00:00:30.431Z,134.93
2019-03-23T00:03:00.627Z,135.87
2019-03-23T00:05:30.886Z,135.90
2019-03-23T00:08:01.231Z,139.17
2019-03-23T00:10:31.403Z,134.10
2019-03-23T00:13:01.600Z,136.00
2019-03-23T00:15:31.796Z,134.73
2019-03-23T00:18:01.987Z,135.67
2019-03-23T00:20:32.460Z,133.57
2019-03-23T00:23:02.731Z,135.97
2019-03-23T00:25:32.912Z,140.67
2019-03-23T00:28:03.100Z,135.30
2019-03-23T00:30:34.349Z,136.83
2019-03-23T00:33:04.611Z,135.97
2019-03-23T00:35:34.897Z,135.47
2019-03-23T00:38:05.171Z,137.93
2019-03-23T00:40:35.545Z,135.97
2019-03-23T00:43:05.734Z,136.40
2019-03-23T00:45:35.985Z,135.73
2019-03-23T00:48:06.251Z,139.67
2019-03-23T00:50:36.426Z,136.67
2019-03-23T00:53:06.618Z,136.30
2019-03-23T00:55:36.798Z,138.00
2019-03-23T00:58:06.981Z,135.07
2019-03-23T01:00:37.150Z,138.77
2019-03-23T01:03:07.418Z,136.77
2019-03-23T01:05:37.604Z,136.10
2019-03-23T01:08:07.798Z,138.17
2019-03-23T01:10:38.327Z,138.57
2019-03-23T01:13:08.602Z,136.67
2019-03-23T01:15:38.782Z,140.53
2019-03-23T01:18:08.966Z,137.57
2019-03-23T01:20:49.123Z,137.73
2019-03-23T01:23:11.106Z,138.47
2019-03-23T01:25:41.282Z,136.03
2019-03-23T01:28:11.475Z,135.77
2019-03-23T01:30:41.657Z,137.23
2019-03-23T01:33:11.854Z,136.27
2019-03-23T01:35:42.038Z,139.47
2019-03-23T01:38:12.242Z,136.00
2019-03-23T01:40:42.394Z,139.10
2019-03-23T01:43:12.582Z,139.37
2019-03-23T01:45:42.771Z,138.63
2019-03-23T01:48:14.995Z,139.77
2019-03-23T01:50:45.175Z,143.50
2019-03-23T01:53:16.899Z,144.13
2019-03-23T01:55:47.142Z,147.47
2019-03-23T01:58:17.328Z,145.00
2019-03-23T02:00:47.586Z,140.97
2019-03-23T02:03:18.254Z,141.00
2019-03-23T02:05:48.607Z,140.17
2019-03-23T02:08:18.807Z,139.50
2019-03-23T02:10:48.988Z,140.70
2019-03-23T02:13:20.251Z,140.43
2019-03-23T02:15:50.567Z,147.77
2019-03-23T02:18:20.755Z,143.87
2019-03-23T02:20:51.018Z,146.43
2019-03-23T02:23:21.199Z,145.23
2019-03-23T02:25:52.359Z,139.77
2019-03-23T02:28:22.543Z,141.73
2019-03-23T02:30:52.729Z,140.27
2019-03-23T02:33:22.918Z,142.77
2019-03-23T02:35:53.103Z,141.10
2019-03-23T02:38:23.292Z,138.87
2019-03-23T02:40:53.556Z,137.90
2019-03-23T02:43:23.749Z,137.40
2019-03-23T02:45:53.911Z,139.77
2019-03-23T02:48:24.372Z,145.97
2019-03-23T02:50:54.542Z,148.10
2019-03-23T02:53:24.751Z,143.30
2019-03-23T02:55:54.951Z,147.00
2019-03-23T02:58:25.126Z,148.60
2019-03-23T03:00:55.316Z,147.53
2019-03-23T03:03:25.512Z,147.17
2019-03-23T03:05:55.704Z,147.37
2019-03-23T03:08:25.958Z,150.90
2019-03-23T03:10:56.138Z,152.43
2019-03-23T03:13:26.312Z,144.20
2019-03-23T03:15:56.503Z,149.97
2019-03-23T03:18:26.759Z,141.40
2019-03-23T03:20:57.018Z,143.03
2019-03-23T03:23:27.200Z,137.87
2019-03-23T03:25:57.388Z,140.00
2019-03-23T03:28:27.567Z,136.63
2019-03-23T03:30:57.769Z,140.10
2019-03-23T03:33:27.941Z,135.30
2019-03-23T03:35:59.203Z,137.17
2019-03-23T03:38:29.389Z,140.47
2019-03-23T03:40:59.569Z,138.60
2019-03-23T03:43:29.919Z,140.60
2019-03-23T03:46:00.183Z,142.10
2019-03-23T03:48:30.355Z,137.70
2019-03-23T03:51:00.547Z,138.23
2019-03-23T03:53:30.722Z,139.27
2019-03-23T03:56:00.923Z,139.87
2019-03-23T03:58:31.195Z,140.27
2019-03-23T04:01:01.389Z,138.73
2019-03-23T04:03:31.592Z,135.77
2019-03-23T04:06:01.782Z,138.93
2019-03-23T04:08:31.960Z,140.03
2019-03-23T04:11:02.152Z,139.20
2019-03-23T04:13:32.406Z,146.03
2019-03-23T04:16:02.933Z,141.00
2019-03-23T04:18:33.103Z,138.13
2019-03-23T04:21:03.313Z,135.90
2019-03-23T04:23:33.497Z,137.00
2019-03-23T04:26:04.108Z,139.63
2019-03-23T04:28:34.288Z,135.70
2019-03-23T04:31:04.557Z,137.80
2019-03-23T04:33:34.743Z,138.57
2019-03-23T04:36:05.287Z,138.50
2019-03-23T04:38:35.472Z,141.47
2019-03-23T04:41:05.740Z,137.70
2019-03-23T04:43:35.920Z,138.30
2019-03-23T04:46:06.179Z,142.57
2019-03-23T04:48:36.358Z,135.50
2019-03-23T04:51:06.560Z,135.73
2019-03-23T04:53:37.881Z,138.53
2019-03-23T04:56:08.145Z,142.10
2019-03-23T04:58:38.400Z,140.57
2019-03-23T05:01:08.731Z,141.13
2019-03-23T05:03:40.170Z,136.37
2019-03-23T05:06:10.367Z,141.30
2019-03-23T05:08:40.546Z,136.97
2019-03-23T05:11:10.726Z,136.93
2019-03-23T05:13:40.939Z,136.67
2019-03-23T05:16:11.118Z,135.53
2019-03-23T05:18:41.306Z,138.30
2019-03-23T05:21:11.491Z,142.80
2019-03-23T05:23:41.661Z,141.37
2019-03-23T05:26:11.846Z,138.47
2019-03-23T05:29:02.345Z,142.60
2019-03-23T05:31:32.538Z,137.03
2019-03-23T05:34:03.779Z,143.83
2019-03-23T05:36:34.152Z,142.67
2019-03-23T05:39:06.065Z,138.83
2019-03-23T05:41:37.318Z,139.83
2019-03-23T05:44:07.498Z,144.07
2019-03-23T05:46:37.694Z,146.43
2019-03-23T05:49:07.862Z,141.70
2019-03-23T05:51:38.054Z,151.83
2019-03-23T05:54:08.266Z,147.90
2019-03-23T05:56:38.453Z,145.07
2019-03-23T05:59:08.723Z,141.90
2019-03-23T06:01:38.925Z,141.70
2019-03-23T06:04:10.228Z,140.53
2019-03-23T06:06:40.406Z,149.97
2019-03-23T06:09:10.673Z,137.57
2019-03-23T06:11:40.987Z,142.30
2019-03-23T06:14:11.247Z,142.13
2019-03-23T06:16:41.527Z,142.27
2019-03-23T06:19:11.707Z,140.60
2019-03-23T06:21:42.783Z,140.70
2019-03-23T06:24:13.249Z,139.97
2019-03-23T06:26:43.522Z,144.83
2019-03-23T06:29:13.763Z,148.53
2019-03-23T06:31:43.956Z,149.67
2019-03-23T06:34:14.133Z,144.37
2019-03-23T06:36:44.319Z,153.07
2019-03-23T06:39:14.524Z,147.60
2019-03-23T06:41:44.714Z,142.70
2019-03-23T06:44:14.898Z,140.97
2019-03-23T06:46:45.087Z,149.93
2019-03-23T06:49:15.259Z,139.20
2019-03-23T06:51:45.443Z,146.80
2019-03-23T06:54:15.802Z,141.23
2019-03-23T06:56:46.003Z,144.17
2019-03-23T06:59:16.189Z,143.97
2019-03-23T07:01:46.365Z,156.07
2019-03-23T07:04:16.559Z,159.13
2019-03-23T07:06:46.747Z,160.87
2019-03-23T07:09:16.926Z,161.60
2019-03-23T07:11:47.099Z,155.93
2019-03-23T07:14:17.346Z,161.17
2019-03-23T07:16:47.563Z,159.57
2019-03-23T07:19:17.738Z,160.23
2019-03-23T07:21:47.933Z,162.57
2019-03-23T07:24:18.119Z,160.13
2019-03-23T07:26:48.306Z,159.63
2019-03-23T07:29:18.489Z,154.53
2019-03-23T07:31:48.679Z,159.87
2019-03-23T07:38:06.183Z,162.37
2019-03-23T07:40:36.370Z,162.47
2019-03-23T07:43:06.583Z,162.77
2019-03-23T07:45:36.770Z,162.37
2019-03-23T07:48:07.048Z,163.33
2019-03-23T07:50:37.226Z,158.10
2019-03-23T07:53:07.426Z,159.07
2019-03-23T07:55:37.615Z,155.13
2019-03-23T07:58:07.811Z,161.43
2019-03-23T08:00:37.990Z,163.97
2019-03-23T08:03:08.192Z,169.63
2019-03-23T08:05:38.866Z,172.53
2019-03-23T08:08:09.050Z,164.37
2019-03-23T08:10:39.278Z,162.70
2019-03-23T08:13:09.471Z,169.17
2019-03-23T08:15:39.699Z,165.37
2019-03-23T08:18:09.890Z,160.67
2019-03-23T08:20:40.062Z,164.30
2019-03-23T08:23:10.246Z,161.07
2019-03-23T08:25:40.422Z,164.80
2019-03-23T08:28:10.619Z,154.77
2019-03-23T08:30:40.803Z,152.70
2019-03-23T08:33:10.991Z,158.97
2019-03-23T08:35:41.190Z,155.10
2019-03-23T08:38:11.374Z,159.77
2019-03-23T08:40:41.563Z,155.20
2019-03-23T08:48:48.006Z,156.73
2019-03-23T08:51:18.254Z,157.43
2019-03-23T08:53:48.482Z,154.40
2019-03-23T08:56:18.670Z,159.90
2019-03-23T08:58:47.026Z,156.03
2019-03-23T09:01:17.273Z,160.83
2019-03-23T09:03:52.514Z,155.63
2019-03-23T09:06:19.446Z,154.73
2019-03-23T09:08:49.659Z,161.70
2019-03-23T09:11:20.693Z,164.83
2019-03-23T09:13:51.102Z,164.30
2019-03-23T09:16:21.282Z,151.13
2019-03-23T09:18:51.483Z,152.80
2019-03-23T09:21:21.679Z,157.47
2019-03-23T09:23:51.867Z,154.17
2019-03-23T09:26:22.060Z,154.17
2019-03-23T09:28:52.243Z,157.00
2019-03-23T09:31:22.511Z,162.17
2019-03-23T09:33:52.701Z,153.87
2019-03-23T09:36:23.216Z,151.50
2019-03-23T09:38:53.511Z,160.37
2019-03-23T09:41:23.686Z,147.13
2019-03-23T09:43:53.981Z,144.97
2019-03-23T09:46:24.183Z,146.73
2019-03-23T09:48:54.450Z,146.03
2019-03-23T09:51:24.630Z,148.07
2019-03-23T09:53:54.818Z,149.70
2019-03-23T09:56:25.005Z,149.27
2019-03-23T09:58:55.191Z,140.03
2019-03-23T10:01:25.374Z,150.40
2019-03-23T10:03:55.586Z,149.73
2019-03-23T10:06:25.758Z,148.07
2019-03-23T10:08:55.950Z,147.53
2019-03-23T10:11:30.062Z,151.97
2019-03-23T10:14:00.259Z,148.33
2019-03-23T10:16:30.446Z,145.03
2019-03-23T10:19:00.634Z,144.13
2019-03-23T10:21:30.851Z,142.83
2019-03-23T10:24:01.030Z,144.53
2019-03-23T10:26:31.222Z,144.40
2019-03-23T10:29:01.415Z,147.60
2019-03-23T10:31:31.668Z,145.60
2019-03-23T10:34:01.857Z,148.07
2019-03-23T10:36:32.098Z,150.30
2019-03-23T10:39:02.664Z,141.10
2019-03-23T10:41:32.837Z,147.30
2019-03-23T10:44:03.034Z,143.30
2019-03-23T10:46:33.207Z,144.67
2019-03-23T10:49:03.393Z,146.43
2019-03-23T10:51:33.566Z,147.67
2019-03-23T10:54:04.155Z,144.20
2019-03-23T10:56:34.509Z,148.80
2019-03-23T10:59:04.700Z,149.20
2019-03-23T11:01:34.882Z,149.60
2019-03-23T11:04:05.082Z,149.00
2019-03-23T11:06:35.355Z,148.80
2019-03-23T11:09:07.242Z,150.27
2019-03-23T11:11:37.418Z,156.07
2019-03-23T11:14:07.625Z,152.03
2019-03-23T11:16:37.823Z,148.60
2019-03-23T11:19:13.362Z,146.87
2019-03-23T11:21:39.954Z,147.23
2019-03-23T11:24:10.199Z,146.93
2019-03-23T11:26:40.378Z,148.03
2019-03-23T11:29:10.567Z,150.67
2019-03-23T11:31:40.759Z,144.53
2019-03-23T11:34:17.764Z,145.17
2019-03-23T11:36:42.924Z,141.27
2019-03-23T11:39:13.189Z,146.83
2019-03-23T11:41:43.367Z,145.23
2019-03-23T11:44:13.562Z,141.63
2019-03-23T11:46:43.750Z,146.83
2019-03-23T11:49:13.949Z,145.20
2019-03-23T11:51:45.194Z,147.10
2019-03-23T11:54:16.353Z,145.80
2019-03-23T11:56:46.532Z,141.70
2019-03-23T11:59:16.722Z,147.67
2019-03-23T12:01:51.791Z,148.37
2019-03-23T12:04:18.802Z,146.80
2019-03-23T12:06:48.975Z,145.07
2019-03-23T12:09:19.175Z,145.57
2019-03-23T12:11:49.435Z,145.80
2019-03-23T12:14:19.642Z,149.73
2019-03-23T12:16:49.839Z,145.40
2019-03-23T12:19:20.014Z,145.87
2019-03-23T12:21:50.938Z,147.90
2019-03-23T12:24:21.178Z,148.67
2019-03-23T12:26:51.445Z,157.53
2019-03-23T12:29:21.695Z,156.97
2019-03-23T12:31:51.890Z,155.03
2019-03-23T12:34:23.134Z,151.90
2019-03-23T12:36:53.330Z,154.13
2019-03-23T12:39:23.519Z,152.70
2019-03-23T12:41:53.722Z,156.07
2019-03-23T12:44:23.899Z,150.80
2019-03-23T12:46:54.110Z,150.27
2019-03-23T12:49:24.295Z,144.03
2019-03-23T12:51:54.511Z,152.20
2019-03-23T12:54:24.851Z,148.70
2019-03-23T12:56:55.123Z,145.53
2019-03-23T12:59:25.294Z,144.77
2019-03-23T13:01:55.562Z,148.03
2019-03-23T13:04:25.891Z,149.03
2019-03-23T13:06:56.074Z,152.33
2019-03-23T13:09:26.259Z,156.17
2019-03-23T13:11:56.452Z,146.33
2019-03-23T13:14:26.638Z,153.43
2019-03-23T13:16:56.828Z,152.70
2019-03-23T13:19:27.082Z,151.00
2019-03-23T13:21:57.471Z,150.33
2019-03-23T13:24:35.743Z,151.60
2019-03-23T13:27:13.114Z,150.87
2019-03-23T13:29:44.115Z,150.83
2019-03-23T13:32:17.428Z,142.97
2019-03-23T13:34:47.759Z,142.87
2019-03-23T13:37:17.942Z,144.63
2019-03-23T13:39:48.126Z,145.07
2019-03-23T13:42:18.330Z,145.07
2019-03-23T13:44:48.527Z,154.00
2019-03-23T13:47:18.770Z,149.27
2019-03-23T13:49:48.949Z,154.83
2019-03-23T13:52:19.219Z,154.00
2019-03-23T13:54:49.472Z,147.93
2019-03-23T13:57:19.677Z,150.80
2019-03-23T13:59:55.807Z,146.23
2019-03-23T14:02:26.787Z,148.60
2019-03-23T14:04:56.983Z,148.87
2019-03-23T14:07:28.142Z,156.17
2019-03-23T14:09:58.407Z,145.33
2019-03-23T14:12:28.594Z,140.27
2019-03-23T14:14:58.803Z,146.47
2019-03-23T14:17:29.015Z,144.33
2019-03-23T14:19:59.195Z,140.17
2019-03-23T14:22:29.388Z,140.77
2019-03-23T14:24:59.566Z,140.63
2019-03-23T14:27:29.758Z,141.13
2019-03-23T14:30:00.023Z,140.63
2019-03-23T14:32:30.224Z,138.33
2019-03-23T14:35:01.242Z,141.53
2019-03-23T14:37:31.805Z,145.83
2019-03-23T14:40:03.067Z,140.80
2019-03-23T14:42:34.625Z,139.80
2019-03-23T14:45:05.470Z,142.63
2019-03-23T14:47:35.664Z,147.63
2019-03-23T14:50:06.487Z,142.20
2019-03-23T14:52:36.765Z,145.00
2019-03-23T14:55:07.504Z,146.90
2019-03-23T14:57:37.700Z,157.93
2019-03-23T15:00:09.205Z,157.83
2019-03-23T15:02:39.394Z,151.90
2019-03-23T15:05:10.994Z,153.33
2019-03-23T15:07:41.186Z,156.70
2019-03-23T15:10:11.931Z,153.93
2019-03-23T15:12:42.123Z,149.87
2019-03-23T15:15:12.462Z,146.90
2019-03-23T15:17:48.846Z,146.40
2019-03-23T15:20:14.704Z,150.23
2019-03-23T15:22:44.907Z,142.83
2019-03-23T15:25:15.088Z,142.83
2019-03-23T15:27:45.282Z,143.50
2019-03-23T15:30:16.639Z,139.97
2019-03-23T15:32:47.158Z,139.60
2019-03-23T15:35:17.330Z,141.80
2019-03-23T15:37:47.538Z,143.57
2019-03-23T15:40:17.800Z,146.40
2019-03-23T15:42:48.000Z,141.07
2019-03-23T15:45:18.258Z,142.10
2019-03-23T15:47:49.413Z,140.43
2019-03-23T15:50:19.594Z,143.67
2019-03-23T15:52:49.786Z,141.23
2019-03-23T15:55:19.963Z,139.37
2019-03-23T15:57:51.245Z,139.37
2019-03-23T16:00:21.567Z,137.27
2019-03-23T16:02:51.850Z,139.37
2019-03-23T16:05:22.082Z,140.87
2019-03-23T16:07:53.242Z,140.90
2019-03-23T16:10:23.425Z,138.90
2019-03-23T16:12:53.619Z,140.97
2019-03-23T16:15:23.809Z,144.90
2019-03-23T16:17:54.016Z,139.83
2019-03-23T16:20:24.198Z,142.87
2019-03-23T16:22:54.473Z,141.63
2019-03-23T16:25:24.743Z,138.30
2019-03-23T16:27:54.926Z,138.73
2019-03-23T16:30:31.017Z,140.60
2019-03-23T16:33:01.287Z,137.20
2019-03-23T16:35:31.522Z,139.23
2019-03-23T16:38:01.695Z,139.03
2019-03-23T16:40:31.871Z,141.07
2019-03-23T16:43:03.633Z,141.13
2019-03-23T16:45:33.875Z,137.90
2019-03-23T16:48:04.155Z,138.27
2019-03-23T16:50:34.331Z,141.33
2019-03-23T16:53:05.739Z,138.77
2019-03-23T16:55:36.034Z,140.30
2019-03-23T16:58:15.550Z,138.57
2019-03-23T17:00:39.072Z,135.03
2019-03-23T17:03:09.361Z,135.00
2019-03-23T17:05:39.530Z,132.33
2019-03-23T17:08:09.723Z,134.70
2019-03-23T17:10:39.899Z,132.43
2019-03-23T17:13:10.182Z,131.13
2019-03-23T17:15:40.355Z,134.63
2019-03-23T17:18:10.626Z,134.20
2019-03-23T17:20:40.806Z,136.93
2019-03-23T17:23:10.986Z,131.37
2019-03-23T17:25:41.162Z,135.43
2019-03-23T17:28:11.350Z,137.23
2019-03-23T17:30:41.526Z,132.73
2019-03-23T17:33:11.714Z,132.97
2019-03-23T17:35:42.011Z,132.33
2019-03-23T17:38:12.201Z,129.73
2019-03-23T17:40:43.658Z,135.03
2019-03-23T17:43:14.647Z,134.10
2019-03-23T17:45:44.827Z,133.63
2019-03-23T17:48:15.019Z,134.63
2019-03-23T17:50:45.234Z,132.70
2019-03-23T17:53:15.424Z,132.53
2019-03-23T17:55:45.607Z,131.83
2019-03-23T17:58:15.875Z,132.10
2019-03-23T18:00:46.064Z,132.60
2019-03-23T18:03:16.318Z,134.03
2019-03-23T18:05:46.494Z,131.87
2019-03-23T18:08:17.759Z,134.40
2019-03-23T18:10:47.943Z,130.30
2019-03-23T18:13:18.226Z,132.67
2019-03-23T18:15:48.496Z,130.43
2019-03-23T18:18:18.673Z,131.23
2019-03-23T18:20:48.884Z,130.93
2019-03-23T18:23:19.074Z,131.93
2019-03-23T18:25:49.255Z,131.60
2019-03-23T18:28:19.434Z,131.60
2019-03-23T18:30:49.692Z,132.27
2019-03-23T18:33:19.900Z,132.70
2019-03-23T18:35:52.998Z,132.13
2019-03-23T18:38:23.269Z,132.73
2019-03-23T18:40:53.590Z,134.70
2019-03-23T18:43:27.781Z,131.80
2019-03-23T18:45:55.719Z,131.57
2019-03-23T18:48:26.007Z,131.30
2019-03-23T18:50:56.256Z,131.00
2019-03-23T18:53:26.455Z,132.00
2019-03-23T18:55:56.622Z,133.23
2019-03-23T18:58:26.843Z,132.80
2019-03-23T19:00:57.023Z,133.67
2019-03-23T19:03:27.222Z,134.13
2019-03-23T19:05:57.403Z,131.77
2019-03-23T19:08:27.586Z,131.63
2019-03-23T19:10:57.758Z,135.07
2019-03-23T19:13:37.476Z,134.23
2019-03-23T19:15:59.830Z,132.57
2019-03-23T19:18:30.034Z,134.83
2019-03-23T19:21:00.284Z,134.47
2019-03-23T19:23:30.815Z,132.20
2019-03-23T19:26:00.990Z,135.07
2019-03-23T19:28:31.186Z,133.97
2019-03-23T19:31:01.431Z,136.13
2019-03-23T19:33:31.659Z,138.37
2019-03-23T19:36:01.917Z,134.97
2019-03-23T19:38:32.114Z,138.33
2019-03-23T19:41:02.282Z,135.07
2019-03-23T19:43:32.474Z,135.10
2019-03-23T19:46:02.665Z,139.00
2019-03-23T19:48:32.847Z,133.17
2019-03-23T19:51:03.889Z,135.60
2019-03-23T19:53:34.247Z,135.37
2019-03-23T19:56:05.083Z,133.60
2019-03-23T19:58:35.259Z,134.47
2019-03-23T20:01:05.523Z,137.40
2019-03-23T20:03:35.711Z,137.60
2019-03-23T20:06:05.992Z,137.37
2019-03-23T20:08:36.182Z,136.47
2019-03-23T20:11:06.451Z,134.90
2019-03-23T20:13:36.634Z,136.70
2019-03-23T20:16:06.812Z,143.77
2019-03-23T20:18:36.991Z,142.13
2019-03-23T20:21:07.167Z,142.37
2019-03-23T20:23:37.442Z,138.37
2019-03-23T20:26:07.618Z,143.80
2019-03-23T20:28:37.809Z,141.70
2019-03-23T20:31:08.061Z,138.73
2019-03-23T20:33:38.242Z,142.60
2019-03-23T20:36:08.482Z,140.47
2019-03-23T20:38:38.934Z,140.03
2019-03-23T20:41:09.119Z,140.67
2019-03-23T20:43:39.369Z,139.90
2019-03-23T20:46:09.548Z,133.70
2019-03-23T20:48:40.506Z,131.50
2019-03-23T20:51:11.730Z,130.93
2019-03-23T20:53:41.935Z,131.47
2019-03-23T20:56:12.123Z,133.20
2019-03-23T20:58:42.319Z,132.63
2019-03-23T21:01:12.504Z,130.13
2019-03-23T21:03:42.860Z,129.83
2019-03-23T21:06:13.047Z,129.70
2019-03-23T21:08:43.233Z,132.37
2019-03-23T21:11:13.410Z,130.43
2019-03-23T21:13:43.608Z,133.27
2019-03-23T21:16:13.795Z,131.03
2019-03-23T21:18:43.978Z,130.17
2019-03-23T21:21:14.154Z,130.87
2019-03-23T21:23:52.182Z,130.57
2019-03-23T21:26:23.595Z,132.40
2019-03-23T21:28:53.795Z,130.27
2019-03-23T21:31:23.970Z,132.27
2019-03-23T21:33:54.158Z,130.17
2019-03-23T21:36:24.410Z,128.83
2019-03-23T21:38:54.602Z,131.63
2019-03-23T21:41:24.794Z,130.10
2019-03-23T21:43:55.047Z,130.73
2019-03-23T21:46:25.227Z,129.67
2019-03-23T21:48:55.422Z,129.97
2019-03-23T21:51:25.729Z,129.00
2019-03-23T21:53:55.914Z,128.90
2019-03-23T21:56:26.100Z,129.87
2019-03-23T21:58:56.352Z,130.00
2019-03-23T22:01:44.129Z,128.77
2019-03-23T22:04:14.395Z,128.40
2019-03-23T22:06:44.598Z,132.40
2019-03-23T22:09:14.774Z,129.13
2019-03-23T22:11:44.994Z,129.77
2019-03-23T22:14:15.235Z,130.13
2019-03-23T22:16:45.447Z,129.33
2019-03-23T22:19:15.639Z,129.87
2019-03-23T22:21:45.832Z,131.03
2019-03-23T22:24:16.030Z,129.77
2019-03-23T22:26:47.382Z,128.97
2019-03-23T22:29:17.563Z,134.00
2019-03-23T22:31:47.748Z,129.20
2019-03-23T22:34:17.923Z,132.87
2019-03-23T22:36:48.107Z,132.77
2019-03-23T22:39:18.280Z,132.40
2019-03-23T22:41:48.460Z,133.33
2019-03-23T22:44:18.641Z,141.43
2019-03-23T22:46:48.838Z,135.40
2019-03-23T22:49:19.027Z,138.57
2019-03-23T22:51:49.221Z,140.03
2019-03-23T22:54:19.419Z,144.03
2019-03-23T22:56:49.607Z,142.07
2019-03-23T22:59:19.797Z,140.17
2019-03-23T23:01:51.147Z,138.07
2019-03-23T23:04:21.337Z,140.73
2019-03-23T23:06:51.516Z,142.37
2019-03-23T23:09:21.697Z,137.37
2019-03-23T23:11:51.976Z,131.20
2019-03-23T23:14:22.170Z,131.93
2019-03-23T23:16:52.395Z,130.53
2019-03-23T23:19:22.590Z,132.33
2019-03-23T23:21:52.854Z,130.73
2019-03-23T23:24:23.034Z,129.40
2019-03-23T23:26:53.227Z,129.40
2019-03-23T23:29:23.402Z,132.77
2019-03-23T23:31:53.579Z,130.90
2019-03-23T23:34:23.766Z,130.53
2019-03-23T23:36:53.942Z,128.27
2019-03-23T23:39:24.278Z,131.43
2019-03-23T23:41:54.451Z,134.43
2019-03-23T23:44:24.630Z,128.77
2019-03-23T23:46:54.818Z,129.60
2019-03-23T23:49:25.009Z,128.90
2019-03-23T23:51:56.395Z,128.63
2019-03-23T23:54:26.582Z,130.07
2019-03-23T23:56:56.759Z,131.13
2019-03-23T23:59:27.858Z,131.20
